sensor_id;sensor_type;location;lat;lon;timestamp;P1;durP1;ratioP1;P2;durP2;ratioP2
16824;SDS011;8529;48.108;-1.706;2023-02-20T00:00:46;15.47;;;9.20;;
16824;SDS011;8529;48.108;-1.706;2023-02-20T00:03:14;11.80;;;7.97;;
16824;SDS011;8529;48.108;-1.706;2023-02-20T00:05:43;19.20;;;10.20;;
16824;SDS011;8529;48.108;-1.706;2023-02-20T00:08:10;17.40;;;9.90;;
16824;SDS011;8529;48.108;-1.706;2023-02-20T00:10:37;17.70;;;9.37;;
16824;SDS011;8529;48.108;-1.706;2023-02-20T00:13:04;15.80;;;8.90;;
16824;SDS011;8529;48.108;-1.706;2023-02-20T00:15:31;15.70;;;9.27;;
16824;SDS011;8529;48.108;-1.706;2023-02-20T00:17:58;17.47;;;9.00;;
16824;SDS011;8529;48.108;-1.706;2023-02-20T00:20:25;18.07;;;10.53;;
16824;SDS011;8529;48.108;-1.706;2023-02-20T00:22:55;17.07;;;8.77;;
16824;SDS011;8529;48.108;-1.706;2023-02-20T00:25:22;14.57;;;8.50;;
16824;SDS011;8529;48.108;-1.706;2023-02-20T00:27:49;18.53;;;9.00;;
16824;SDS011;8529;48.108;-1.706;2023-02-20T00:30:17;14.43;;;8.87;;
16824;SDS011;8529;48.108;-1.706;2023-02-20T00:32:46;16.13;;;9.27;;
16824;SDS011;8529;48.108;-1.706;2023-02-20T00:35:14;16.20;;;9.50;;
16824;SDS011;8529;48.108;-1.706;2023-02-20T00:37:42;17.57;;;10.00;;
16824;SDS011;8529;48.108;-1.706;2023-02-20T00:40:12;15.70;;;10.30;;
16824;SDS011;8529;48.108;-1.706;2023-02-20T00:42:40;15.97;;;9.43;;
16824;SDS011;8529;48.108;-1.706;2023-02-20T00:45:07;18.00;;;9.33;;
16824;SDS011;8529;48.108;-1.706;2023-02-20T00:47:36;18.03;;;8.57;;
16824;SDS011;8529;48.108;-1.706;2023-02-20T00:50:03;19.77;;;9.80;;
16824;SDS011;8529;48.108;-1.706;2023-02-20T00:52:31;14.83;;;8.83;;
16824;SDS011;8529;48.108;-1.706;2023-02-20T00:55:00;15.93;;;9.67;;
16824;SDS011;8529;48.108;-1.706;2023-02-20T00:57:28;14.73;;;8.53;;
16824;SDS011;8529;48.108;-1.706;2023-02-20T00:59:55;16.53;;;8.97;;
16824;SDS011;8529;48.108;-1.706;2023-02-20T01:02:22;18.07;;;9.77;;
16824;SDS011;8529;48.108;-1.706;2023-02-20T01:04:49;16.10;;;8.00;;
16824;SDS011;8529;48.108;-1.706;2023-02-20T01:07:16;13.40;;;7.83;;
16824;SDS011;8529;48.108;-1.706;2023-02-20T01:09:43;11.73;;;7.67;;
16824;SDS011;8529;48.108;-1.706;2023-02-20T01:12:10;13.47;;;7.80;;
16824;SDS011;8529;48.108;-1.706;2023-02-20T01:14:38;12.40;;;8.10;;
16824;SDS011;8529;48.108;-1.706;2023-02-20T01:17:05;14.03;;;7.53;;
16824;SDS011;8529;48.108;-1.706;2023-02-20T01:19:32;13.13;;;7.93;;
16824;SDS011;8529;48.108;-1.706;2023-02-20T01:21:59;11.20;;;7.23;;
16824;SDS011;8529;48.108;-1.706;2023-02-20T01:24:30;10.57;;;7.43;;
16824;SDS011;8529;48.108;-1.706;2023-02-20T01:26:57;12.60;;;7.57;;
16824;SDS011;8529;48.108;-1.706;2023-02-20T01:29:24;13.73;;;8.10;;
16824;SDS011;8529;48.108;-1.706;2023-02-20T01:31:52;12.47;;;9.07;;
16824;SDS011;8529;48.108;-1.706;2023-02-20T01:34:20;13.17;;;7.57;;
16824;SDS011;8529;48.108;-1.706;2023-02-20T01:36:47;12.97;;;7.93;;
16824;SDS011;8529;48.108;-1.706;2023-02-20T01:39:15;15.60;;;8.03;;
16824;SDS011;8529;48.108;-1.706;2023-02-20T01:41:43;11.77;;;6.83;;
16824;SDS011;8529;48.108;-1.706;2023-02-20T01:44:16;10.53;;;7.40;;
16824;SDS011;8529;48.108;-1.706;2023-02-20T01:46:49;12.60;;;7.90;;
16824;SDS011;8529;48.108;-1.706;2023-02-20T01:49:20;14.43;;;8.00;;
16824;SDS011;8529;48.108;-1.706;2023-02-20T01:51:52;11.33;;;6.87;;
16824;SDS011;8529;48.108;-1.706;2023-02-20T01:54:24;13.00;;;7.47;;
16824;SDS011;8529;48.108;-1.706;2023-02-20T01:56:53;10.70;;;7.20;;
16824;SDS011;8529;48.108;-1.706;2023-02-20T01:59:24;11.30;;;8.30;;
16824;SDS011;8529;48.108;-1.706;2023-02-20T02:01:53;15.80;;;7.60;;
16824;SDS011;8529;48.108;-1.706;2023-02-20T02:04:22;12.47;;;8.40;;
16824;SDS011;8529;48.108;-1.706;2023-02-20T02:06:50;10.23;;;7.50;;
16824;SDS011;8529;48.108;-1.706;2023-02-20T02:09:22;12.97;;;7.50;;
16824;SDS011;8529;48.108;-1.706;2023-02-20T02:11:53;12.70;;;8.13;;
16824;SDS011;8529;48.108;-1.706;2023-02-20T02:14:20;18.97;;;8.83;;
16824;SDS011;8529;48.108;-1.706;2023-02-20T02:16:51;14.67;;;9.73;;
16824;SDS011;8529;48.108;-1.706;2023-02-20T02:19:37;11.73;;;8.17;;
16824;SDS011;8529;48.108;-1.706;2023-02-20T02:22:43;11.83;;;7.50;;
16824;SDS011;8529;48.108;-1.706;2023-02-20T02:25:32;12.80;;;7.93;;
16824;SDS011;8529;48.108;-1.706;2023-02-20T02:34:46;17.70;;;8.40;;
16824;SDS011;8529;48.108;-1.706;2023-02-20T02:37:40;14.03;;;9.07;;
16824;SDS011;8529;48.108;-1.706;2023-02-20T02:40:18;11.73;;;8.70;;
16824;SDS011;8529;48.108;-1.706;2023-02-20T02:42:51;12.20;;;8.83;;
16824;SDS011;8529;48.108;-1.706;2023-02-20T02:45:27;14.10;;;9.10;;
16824;SDS011;8529;48.108;-1.706;2023-02-20T02:48:03;15.07;;;9.70;;
16824;SDS011;8529;48.108;-1.706;2023-02-20T02:50:34;12.83;;;8.87;;
16824;SDS011;8529;48.108;-1.706;2023-02-20T02:53:05;13.80;;;9.07;;
16824;SDS011;8529;48.108;-1.706;2023-02-20T02:55:34;15.30;;;8.57;;
16824;SDS011;8529;48.108;-1.706;2023-02-20T02:58:01;14.23;;;8.63;;
16824;SDS011;8529;48.108;-1.706;2023-02-20T03:00:31;14.47;;;8.70;;
16824;SDS011;8529;48.108;-1.706;2023-02-20T03:03:03;13.37;;;8.83;;
16824;SDS011;8529;48.108;-1.706;2023-02-20T03:05:46;13.20;;;8.73;;
16824;SDS011;8529;48.108;-1.706;2023-02-20T03:08:20;12.70;;;7.80;;
16824;SDS011;8529;48.108;-1.706;2023-02-20T03:10:56;12.60;;;8.27;;
16824;SDS011;8529;48.108;-1.706;2023-02-20T03:13:27;13.00;;;8.17;;
16824;SDS011;8529;48.108;-1.706;2023-02-20T03:16:15;15.57;;;8.03;;
16824;SDS011;8529;48.108;-1.706;2023-02-20T03:18:48;10.17;;;7.97;;
16824;SDS011;8529;48.108;-1.706;2023-02-20T03:21:18;14.13;;;8.17;;
16824;SDS011;8529;48.108;-1.706;2023-02-20T03:23:50;15.47;;;7.90;;
16824;SDS011;8529;48.108;-1.706;2023-02-20T03:26:25;12.87;;;8.20;;
16824;SDS011;8529;48.108;-1.706;2023-02-20T03:28:55;10.67;;;7.60;;
16824;SDS011;8529;48.108;-1.706;2023-02-20T03:31:27;11.90;;;7.40;;
16824;SDS011;8529;48.108;-1.706;2023-02-20T03:34:00;10.77;;;7.73;;
16824;SDS011;8529;48.108;-1.706;2023-02-20T03:36:49;11.07;;;7.67;;
16824;SDS011;8529;48.108;-1.706;2023-02-20T03:39:40;17.60;;;8.33;;
16824;SDS011;8529;48.108;-1.706;2023-02-20T03:42:28;9.43;;;6.67;;
16824;SDS011;8529;48.108;-1.706;2023-02-20T03:45:16;12.17;;;7.27;;
16824;SDS011;8529;48.108;-1.706;2023-02-20T03:47:48;11.90;;;7.60;;
16824;SDS011;8529;48.108;-1.706;2023-02-20T03:50:18;11.03;;;7.93;;
16824;SDS011;8529;48.108;-1.706;2023-02-20T03:53:03;10.53;;;7.67;;
16824;SDS011;8529;48.108;-1.706;2023-02-20T03:55:32;11.50;;;7.30;;
16824;SDS011;8529;48.108;-1.706;2023-02-20T03:57:59;9.90;;;7.47;;
16824;SDS011;8529;48.108;-1.706;2023-02-20T04:00:31;12.67;;;7.87;;
16824;SDS011;8529;48.108;-1.706;2023-02-20T04:03:02;14.77;;;8.87;;
16824;SDS011;8529;48.108;-1.706;2023-02-20T04:05:35;11.90;;;8.57;;
16824;SDS011;8529;48.108;-1.706;2023-02-20T04:08:07;13.80;;;9.50;;
16824;SDS011;8529;48.108;-1.706;2023-02-20T04:10:38;11.43;;;8.97;;
16824;SDS011;8529;48.108;-1.706;2023-02-20T04:13:08;14.87;;;10.93;;
16824;SDS011;8529;48.108;-1.706;2023-02-20T04:15:37;15.03;;;11.30;;
16824;SDS011;8529;48.108;-1.706;2023-02-20T04:18:08;13.50;;;9.97;;
16824;SDS011;8529;48.108;-1.706;2023-02-20T04:20:37;13.17;;;9.87;;
16824;SDS011;8529;48.108;-1.706;2023-02-20T04:23:05;11.43;;;8.97;;
16824;SDS011;8529;48.108;-1.706;2023-02-20T04:25:41;12.13;;;7.90;;
16824;SDS011;8529;48.108;-1.706;2023-02-20T04:28:10;12.10;;;8.10;;
16824;SDS011;8529;48.108;-1.706;2023-02-20T04:30:38;15.90;;;11.67;;
16824;SDS011;8529;48.108;-1.706;2023-02-20T04:33:05;14.37;;;9.40;;
16824;SDS011;8529;48.108;-1.706;2023-02-20T04:35:32;10.43;;;7.77;;
16824;SDS011;8529;48.108;-1.706;2023-02-20T04:37:59;8.87;;;6.53;;
16824;SDS011;8529;48.108;-1.706;2023-02-20T04:40:26;10.23;;;7.53;;
16824;SDS011;8529;48.108;-1.706;2023-02-20T04:42:54;12.93;;;7.37;;
16824;SDS011;8529;48.108;-1.706;2023-02-20T04:45:21;9.53;;;7.03;;
16824;SDS011;8529;48.108;-1.706;2023-02-20T04:47:48;10.63;;;7.73;;
16824;SDS011;8529;48.108;-1.706;2023-02-20T04:50:15;10.10;;;8.37;;
16824;SDS011;8529;48.108;-1.706;2023-02-20T04:52:45;11.77;;;8.77;;
16824;SDS011;8529;48.108;-1.706;2023-02-20T04:55:13;9.53;;;7.70;;
16824;SDS011;8529;48.108;-1.706;2023-02-20T04:57:40;11.20;;;8.47;;
16824;SDS011;8529;48.108;-1.706;2023-02-20T05:00:10;12.60;;;8.50;;
16824;SDS011;8529;48.108;-1.706;2023-02-20T05:02:38;11.47;;;7.97;;
16824;SDS011;8529;48.108;-1.706;2023-02-20T05:05:06;11.53;;;8.57;;
16824;SDS011;8529;48.108;-1.706;2023-02-20T05:07:40;11.93;;;8.80;;
16824;SDS011;8529;48.108;-1.706;2023-02-20T05:10:07;13.50;;;8.17;;
16824;SDS011;8529;48.108;-1.706;2023-02-20T05:12:34;11.77;;;7.37;;
16824;SDS011;8529;48.108;-1.706;2023-02-20T05:15:01;13.73;;;8.20;;
16824;SDS011;8529;48.108;-1.706;2023-02-20T05:17:29;11.20;;;7.03;;
16824;SDS011;8529;48.108;-1.706;2023-02-20T05:19:56;12.93;;;7.77;;
16824;SDS011;8529;48.108;-1.706;2023-02-20T05:22:23;14.43;;;8.03;;
16824;SDS011;8529;48.108;-1.706;2023-02-20T05:24:50;9.63;;;7.47;;
16824;SDS011;8529;48.108;-1.706;2023-02-20T05:27:18;10.83;;;7.73;;
16824;SDS011;8529;48.108;-1.706;2023-02-20T05:29:47;12.10;;;8.50;;
16824;SDS011;8529;48.108;-1.706;2023-02-20T05:32:15;11.27;;;7.50;;
16824;SDS011;8529;48.108;-1.706;2023-02-20T05:34:46;10.83;;;7.57;;
16824;SDS011;8529;48.108;-1.706;2023-02-20T05:37:14;11.27;;;7.77;;
16824;SDS011;8529;48.108;-1.706;2023-02-20T05:39:43;11.03;;;7.63;;
16824;SDS011;8529;48.108;-1.706;2023-02-20T05:42:11;13.77;;;8.43;;
16824;SDS011;8529;48.108;-1.706;2023-02-20T05:44:38;10.97;;;7.87;;
16824;SDS011;8529;48.108;-1.706;2023-02-20T05:47:07;12.33;;;8.67;;
16824;SDS011;8529;48.108;-1.706;2023-02-20T05:49:35;11.17;;;7.80;;
16824;SDS011;8529;48.108;-1.706;2023-02-20T05:52:04;10.00;;;8.23;;
16824;SDS011;8529;48.108;-1.706;2023-02-20T05:54:35;12.73;;;8.60;;
16824;SDS011;8529;48.108;-1.706;2023-02-20T05:57:02;11.40;;;8.97;;
16824;SDS011;8529;48.108;-1.706;2023-02-20T05:59:30;11.57;;;8.33;;
16824;SDS011;8529;48.108;-1.706;2023-02-20T06:01:58;12.73;;;8.70;;
16824;SDS011;8529;48.108;-1.706;2023-02-20T06:04:25;14.93;;;8.47;;
16824;SDS011;8529;48.108;-1.706;2023-02-20T06:06:52;16.33;;;8.63;;
16824;SDS011;8529;48.108;-1.706;2023-02-20T06:09:21;12.40;;;8.90;;
16824;SDS011;8529;48.108;-1.706;2023-02-20T06:11:49;15.47;;;9.23;;
16824;SDS011;8529;48.108;-1.706;2023-02-20T06:14:18;15.40;;;9.50;;
16824;SDS011;8529;48.108;-1.706;2023-02-20T06:16:46;16.03;;;9.03;;
16824;SDS011;8529;48.108;-1.706;2023-02-20T06:19:16;16.20;;;9.97;;
16824;SDS011;8529;48.108;-1.706;2023-02-20T06:21:46;14.93;;;10.90;;
16824;SDS011;8529;48.108;-1.706;2023-02-20T06:24:13;16.73;;;10.43;;
16824;SDS011;8529;48.108;-1.706;2023-02-20T06:26:42;23.23;;;11.83;;
16824;SDS011;8529;48.108;-1.706;2023-02-20T06:29:09;21.10;;;11.53;;
16824;SDS011;8529;48.108;-1.706;2023-02-20T06:31:37;20.70;;;11.70;;
16824;SDS011;8529;48.108;-1.706;2023-02-20T06:34:05;14.60;;;9.87;;
16824;SDS011;8529;48.108;-1.706;2023-02-20T06:36:33;18.47;;;12.27;;
16824;SDS011;8529;48.108;-1.706;2023-02-20T06:39:02;14.77;;;8.97;;
16824;SDS011;8529;48.108;-1.706;2023-02-20T06:41:30;16.10;;;9.30;;
16824;SDS011;8529;48.108;-1.706;2023-02-20T06:43:58;13.17;;;8.60;;
16824;SDS011;8529;48.108;-1.706;2023-02-20T06:46:25;18.83;;;9.40;;
16824;SDS011;8529;48.108;-1.706;2023-02-20T06:48:53;18.80;;;8.60;;
16824;SDS011;8529;48.108;-1.706;2023-02-20T06:51:21;15.07;;;8.93;;
16824;SDS011;8529;48.108;-1.706;2023-02-20T06:53:50;14.27;;;8.53;;
16824;SDS011;8529;48.108;-1.706;2023-02-20T06:56:18;19.00;;;10.10;;
16824;SDS011;8529;48.108;-1.706;2023-02-20T06:58:46;18.20;;;9.80;;
16824;SDS011;8529;48.108;-1.706;2023-02-20T07:01:15;20.63;;;9.57;;
16824;SDS011;8529;48.108;-1.706;2023-02-20T07:03:44;19.00;;;9.73;;
16824;SDS011;8529;48.108;-1.706;2023-02-20T07:06:12;14.83;;;9.30;;
16824;SDS011;8529;48.108;-1.706;2023-02-20T07:08:39;18.00;;;9.77;;
16824;SDS011;8529;48.108;-1.706;2023-02-20T07:11:06;22.17;;;9.00;;
16824;SDS011;8529;48.108;-1.706;2023-02-20T07:13:34;17.83;;;9.87;;
16824;SDS011;8529;48.108;-1.706;2023-02-20T07:16:00;20.67;;;9.83;;
16824;SDS011;8529;48.108;-1.706;2023-02-20T07:18:29;19.80;;;9.40;;
16824;SDS011;8529;48.108;-1.706;2023-02-20T07:20:56;18.50;;;9.67;;
16824;SDS011;8529;48.108;-1.706;2023-02-20T07:23:23;19.00;;;10.50;;
16824;SDS011;8529;48.108;-1.706;2023-02-20T07:25:50;19.77;;;9.77;;
16824;SDS011;8529;48.108;-1.706;2023-02-20T07:28:17;16.97;;;9.60;;
16824;SDS011;8529;48.108;-1.706;2023-02-20T07:30:45;18.50;;;9.37;;
16824;SDS011;8529;48.108;-1.706;2023-02-20T07:33:13;20.53;;;9.57;;
16824;SDS011;8529;48.108;-1.706;2023-02-20T07:35:42;18.97;;;10.30;;
16824;SDS011;8529;48.108;-1.706;2023-02-20T07:38:09;16.97;;;9.00;;
16824;SDS011;8529;48.108;-1.706;2023-02-20T07:40:36;20.20;;;10.50;;
16824;SDS011;8529;48.108;-1.706;2023-02-20T07:43:03;18.37;;;11.03;;
16824;SDS011;8529;48.108;-1.706;2023-02-20T07:45:30;23.30;;;12.53;;
16824;SDS011;8529;48.108;-1.706;2023-02-20T07:47:57;24.63;;;12.07;;
16824;SDS011;8529;48.108;-1.706;2023-02-20T07:50:24;14.27;;;7.57;;
16824;SDS011;8529;48.108;-1.706;2023-02-20T07:52:52;12.67;;;6.57;;
16824;SDS011;8529;48.108;-1.706;2023-02-20T07:55:19;10.83;;;6.00;;
16824;SDS011;8529;48.108;-1.706;2023-02-20T07:57:47;15.60;;;7.47;;
16824;SDS011;8529;48.108;-1.706;2023-02-20T08:00:16;15.17;;;7.17;;
16824;SDS011;8529;48.108;-1.706;2023-02-20T08:02:44;11.97;;;6.03;;
16824;SDS011;8529;48.108;-1.706;2023-02-20T08:05:11;10.30;;;5.80;;
16824;SDS011;8529;48.108;-1.706;2023-02-20T08:07:42;15.37;;;5.97;;
16824;SDS011;8529;48.108;-1.706;2023-02-20T08:10:12;11.83;;;5.80;;
16824;SDS011;8529;48.108;-1.706;2023-02-20T08:12:40;18.03;;;6.70;;
16824;SDS011;8529;48.108;-1.706;2023-02-20T08:15:07;12.83;;;5.93;;
16824;SDS011;8529;48.108;-1.706;2023-02-20T08:17:37;14.13;;;6.00;;
16824;SDS011;8529;48.108;-1.706;2023-02-20T08:20:05;14.67;;;6.80;;
16824;SDS011;8529;48.108;-1.706;2023-02-20T08:22:33;12.70;;;6.77;;
16824;SDS011;8529;48.108;-1.706;2023-02-20T08:25:00;11.23;;;6.33;;
16824;SDS011;8529;48.108;-1.706;2023-02-20T08:27:29;14.33;;;7.00;;
16824;SDS011;8529;48.108;-1.706;2023-02-20T08:29:57;12.60;;;6.60;;
16824;SDS011;8529;48.108;-1.706;2023-02-20T08:32:24;10.67;;;6.47;;
16824;SDS011;8529;48.108;-1.706;2023-02-20T08:34:51;13.57;;;7.03;;
16824;SDS011;8529;48.108;-1.706;2023-02-20T08:37:18;13.83;;;6.47;;
16824;SDS011;8529;48.108;-1.706;2023-02-20T08:39:45;14.43;;;7.07;;
16824;SDS011;8529;48.108;-1.706;2023-02-20T08:42:13;15.57;;;7.10;;
16824;SDS011;8529;48.108;-1.706;2023-02-20T08:44:43;15.10;;;7.57;;
16824;SDS011;8529;48.108;-1.706;2023-02-20T08:47:09;11.60;;;6.30;;
16824;SDS011;8529;48.108;-1.706;2023-02-20T08:49:36;13.93;;;6.40;;
16824;SDS011;8529;48.108;-1.706;2023-02-20T08:52:03;14.60;;;6.90;;
16824;SDS011;8529;48.108;-1.706;2023-02-20T08:54:31;15.73;;;7.20;;
16824;SDS011;8529;48.108;-1.706;2023-02-20T08:56:58;12.13;;;6.20;;
16824;SDS011;8529;48.108;-1.706;2023-02-20T08:59:25;10.17;;;6.23;;
16824;SDS011;8529;48.108;-1.706;2023-02-20T09:01:53;11.30;;;6.50;;
16824;SDS011;8529;48.108;-1.706;2023-02-20T09:04:20;12.53;;;7.17;;
16824;SDS011;8529;48.108;-1.706;2023-02-20T09:06:48;16.23;;;7.47;;
16824;SDS011;8529;48.108;-1.706;2023-02-20T09:09:15;21.40;;;6.83;;
16824;SDS011;8529;48.108;-1.706;2023-02-20T09:11:42;14.03;;;6.23;;
16824;SDS011;8529;48.108;-1.706;2023-02-20T09:14:09;11.00;;;5.73;;
16824;SDS011;8529;48.108;-1.706;2023-02-20T09:16:36;13.13;;;6.10;;
16824;SDS011;8529;48.108;-1.706;2023-02-20T09:19:07;9.60;;;5.80;;
16824;SDS011;8529;48.108;-1.706;2023-02-20T09:21:34;28.67;;;6.50;;
16824;SDS011;8529;48.108;-1.706;2023-02-20T09:24:01;12.83;;;5.40;;
16824;SDS011;8529;48.108;-1.706;2023-02-20T09:26:30;9.00;;;4.67;;
16824;SDS011;8529;48.108;-1.706;2023-02-20T09:28:57;10.27;;;5.50;;
16824;SDS011;8529;48.108;-1.706;2023-02-20T09:31:24;9.07;;;4.63;;
16824;SDS011;8529;48.108;-1.706;2023-02-20T09:33:51;9.33;;;5.03;;
16824;SDS011;8529;48.108;-1.706;2023-02-20T09:36:19;11.70;;;5.20;;
16824;SDS011;8529;48.108;-1.706;2023-02-20T09:38:46;21.53;;;5.73;;
16824;SDS011;8529;48.108;-1.706;2023-02-20T09:41:17;11.73;;;5.43;;
16824;SDS011;8529;48.108;-1.706;2023-02-20T09:43:54;14.57;;;8.20;;
16824;SDS011;8529;48.108;-1.706;2023-02-20T09:46:26;8.47;;;5.50;;
16824;SDS011;8529;48.108;-1.706;2023-02-20T09:48:57;10.03;;;5.57;;
16824;SDS011;8529;48.108;-1.706;2023-02-20T09:51:31;8.23;;;5.33;;
16824;SDS011;8529;48.108;-1.706;2023-02-20T09:54:02;11.07;;;5.93;;
16824;SDS011;8529;48.108;-1.706;2023-02-20T09:56:33;10.13;;;6.17;;
16824;SDS011;8529;48.108;-1.706;2023-02-20T09:59:05;12.20;;;6.40;;
16824;SDS011;8529;48.108;-1.706;2023-02-20T10:01:36;10.40;;;6.30;;
16824;SDS011;8529;48.108;-1.706;2023-02-20T10:04:09;11.57;;;7.43;;
16824;SDS011;8529;48.108;-1.706;2023-02-20T10:06:41;11.87;;;6.57;;
16824;SDS011;8529;48.108;-1.706;2023-02-20T10:09:12;13.70;;;6.63;;
16824;SDS011;8529;48.108;-1.706;2023-02-20T10:11:46;11.83;;;6.30;;
16824;SDS011;8529;48.108;-1.706;2023-02-20T10:14:26;10.57;;;6.83;;
16824;SDS011;8529;48.108;-1.706;2023-02-20T10:17:02;11.57;;;6.47;;
16824;SDS011;8529;48.108;-1.706;2023-02-20T10:19:39;12.27;;;6.60;;
16824;SDS011;8529;48.108;-1.706;2023-02-20T10:22:17;10.27;;;6.33;;
16824;SDS011;8529;48.108;-1.706;2023-02-20T10:24:52;10.53;;;6.17;;
16824;SDS011;8529;48.108;-1.706;2023-02-20T10:27:30;11.30;;;6.13;;
16824;SDS011;8529;48.108;-1.706;2023-02-20T10:30:05;11.73;;;6.97;;
16824;SDS011;8529;48.108;-1.706;2023-02-20T10:32:37;12.47;;;6.20;;
16824;SDS011;8529;48.108;-1.706;2023-02-20T10:35:10;9.50;;;6.17;;
16824;SDS011;8529;48.108;-1.706;2023-02-20T10:37:43;12.33;;;6.43;;
16824;SDS011;8529;48.108;-1.706;2023-02-20T10:40:16;15.30;;;6.57;;
16824;SDS011;8529;48.108;-1.706;2023-02-20T10:42:50;13.53;;;6.53;;
16824;SDS011;8529;48.108;-1.706;2023-02-20T10:45:21;11.13;;;6.97;;
16824;SDS011;8529;48.108;-1.706;2023-02-20T10:47:54;11.70;;;6.30;;
16824;SDS011;8529;48.108;-1.706;2023-02-20T10:50:28;16.23;;;7.53;;
16824;SDS011;8529;48.108;-1.706;2023-02-20T10:53:06;13.80;;;7.00;;
16824;SDS011;8529;48.108;-1.706;2023-02-20T10:55:43;11.70;;;6.93;;
16824;SDS011;8529;48.108;-1.706;2023-02-20T10:58:15;13.23;;;7.50;;
16824;SDS011;8529;48.108;-1.706;2023-02-20T11:00:45;16.63;;;8.43;;
16824;SDS011;8529;48.108;-1.706;2023-02-20T11:03:16;12.50;;;8.30;;
16824;SDS011;8529;48.108;-1.706;2023-02-20T11:05:48;11.50;;;7.30;;
16824;SDS011;8529;48.108;-1.706;2023-02-20T11:08:20;14.07;;;8.00;;
16824;SDS011;8529;48.108;-1.706;2023-02-20T11:10:47;13.93;;;7.03;;
16824;SDS011;8529;48.108;-1.706;2023-02-20T11:13:16;12.70;;;7.47;;
16824;SDS011;8529;48.108;-1.706;2023-02-20T11:15:47;15.53;;;9.10;;
16824;SDS011;8529;48.108;-1.706;2023-02-20T11:18:19;13.17;;;7.47;;
16824;SDS011;8529;48.108;-1.706;2023-02-20T11:20:52;14.50;;;8.27;;
16824;SDS011;8529;48.108;-1.706;2023-02-20T11:23:35;17.93;;;9.93;;
16824;SDS011;8529;48.108;-1.706;2023-02-20T11:26:12;15.90;;;10.20;;
16824;SDS011;8529;48.108;-1.706;2023-02-20T11:28:53;14.13;;;7.25;;
16824;SDS011;8529;48.108;-1.706;2023-02-20T11:31:22;11.30;;;6.87;;
16824;SDS011;8529;48.108;-1.706;2023-02-20T11:33:50;15.20;;;7.77;;
16824;SDS011;8529;48.108;-1.706;2023-02-20T11:36:21;41.73;;;19.77;;
16824;SDS011;8529;48.108;-1.706;2023-02-20T11:38:56;12.57;;;8.30;;
16824;SDS011;8529;48.108;-1.706;2023-02-20T11:41:28;12.80;;;7.20;;
16824;SDS011;8529;48.108;-1.706;2023-02-20T11:44:15;12.30;;;6.80;;
16824;SDS011;8529;48.108;-1.706;2023-02-20T11:46:49;12.17;;;6.97;;
16824;SDS011;8529;48.108;-1.706;2023-02-20T11:49:35;17.07;;;10.57;;
16824;SDS011;8529;48.108;-1.706;2023-02-20T11:52:06;15.88;;;8.38;;
16824;SDS011;8529;48.108;-1.706;2023-02-20T11:54:36;16.30;;;9.27;;
16824;SDS011;8529;48.108;-1.706;2023-02-20T11:57:04;17.97;;;9.47;;
16824;SDS011;8529;48.108;-1.706;2023-02-20T11:59:38;17.83;;;10.07;;
16824;SDS011;8529;48.108;-1.706;2023-02-20T12:02:19;19.38;;;10.77;;
16824;SDS011;8529;48.108;-1.706;2023-02-20T12:07:43;17.92;;;10.40;;
16824;SDS011;8529;48.108;-1.706;2023-02-20T12:10:20;22.92;;;12.45;;
16824;SDS011;8529;48.108;-1.706;2023-02-20T12:13:04;17.90;;;11.38;;
16824;SDS011;8529;48.108;-1.706;2023-02-20T12:15:34;14.25;;;9.82;;
16824;SDS011;8529;48.108;-1.706;2023-02-20T12:18:06;14.93;;;9.17;;
16824;SDS011;8529;48.108;-1.706;2023-02-20T12:20:44;16.08;;;9.10;;
16824;SDS011;8529;48.108;-1.706;2023-02-20T12:23:17;16.50;;;10.00;;
16824;SDS011;8529;48.108;-1.706;2023-02-20T12:25:56;19.33;;;9.47;;
16824;SDS011;8529;48.108;-1.706;2023-02-20T12:28:34;15.00;;;8.93;;
16824;SDS011;8529;48.108;-1.706;2023-02-20T12:31:12;18.40;;;10.88;;
16824;SDS011;8529;48.108;-1.706;2023-02-20T12:33:58;14.55;;;8.85;;
16824;SDS011;8529;48.108;-1.706;2023-02-20T12:36:46;17.70;;;10.20;;
16824;SDS011;8529;48.108;-1.706;2023-02-20T12:39:20;15.93;;;9.70;;
16824;SDS011;8529;48.108;-1.706;2023-02-20T12:42:04;16.15;;;8.73;;
16824;SDS011;8529;48.108;-1.706;2023-02-20T12:47:33;13.53;;;6.50;;
16824;SDS011;8529;48.108;-1.706;2023-02-20T12:55:54;7.53;;;5.53;;
16824;SDS011;8529;48.108;-1.706;2023-02-20T12:58:36;10.00;;;5.63;;
16824;SDS011;8529;48.108;-1.706;2023-02-20T13:01:11;11.27;;;6.25;;
16824;SDS011;8529;48.108;-1.706;2023-02-20T13:03:42;8.88;;;5.70;;
16824;SDS011;8529;48.108;-1.706;2023-02-20T13:06:17;10.82;;;6.32;;
16824;SDS011;8529;48.108;-1.706;2023-02-20T13:08:54;9.55;;;6.30;;
16824;SDS011;8529;48.108;-1.706;2023-02-20T13:11:28;9.77;;;6.00;;
16824;SDS011;8529;48.108;-1.706;2023-02-20T13:14:03;14.43;;;6.57;;
16824;SDS011;8529;48.108;-1.706;2023-02-20T13:16:42;9.88;;;6.35;;
16824;SDS011;8529;48.108;-1.706;2023-02-20T13:19:16;12.05;;;6.25;;
16824;SDS011;8529;48.108;-1.706;2023-02-20T13:21:48;9.90;;;6.50;;
16824;SDS011;8529;48.108;-1.706;2023-02-20T13:24:26;15.10;;;7.28;;
16824;SDS011;8529;48.108;-1.706;2023-02-20T13:26:54;10.98;;;6.50;;
16824;SDS011;8529;48.108;-1.706;2023-02-20T13:29:23;13.90;;;7.18;;
16824;SDS011;8529;48.108;-1.706;2023-02-20T13:31:52;10.57;;;6.95;;
16824;SDS011;8529;48.108;-1.706;2023-02-20T13:34:34;13.82;;;7.78;;
16824;SDS011;8529;48.108;-1.706;2023-02-20T13:37:02;11.48;;;7.57;;
16824;SDS011;8529;48.108;-1.706;2023-02-20T13:42:24;13.73;;;7.18;;
16824;SDS011;8529;48.108;-1.706;2023-02-20T13:44:57;12.55;;;6.50;;
16824;SDS011;8529;48.108;-1.706;2023-02-20T13:47:37;12.52;;;7.93;;
16824;SDS011;8529;48.108;-1.706;2023-02-20T13:52:56;14.27;;;7.60;;
16824;SDS011;8529;48.108;-1.706;2023-02-20T13:55:27;13.57;;;7.32;;
16824;SDS011;8529;48.108;-1.706;2023-02-20T13:57:55;11.55;;;7.60;;
16824;SDS011;8529;48.108;-1.706;2023-02-20T14:00:33;11.55;;;7.22;;
16824;SDS011;8529;48.108;-1.706;2023-02-20T14:03:09;9.95;;;6.75;;
16824;SDS011;8529;48.108;-1.706;2023-02-20T14:05:37;11.48;;;7.20;;
16824;SDS011;8529;48.108;-1.706;2023-02-20T14:08:05;13.32;;;7.28;;
16824;SDS011;8529;48.108;-1.706;2023-02-20T14:10:33;11.85;;;7.30;;
16824;SDS011;8529;48.108;-1.706;2023-02-20T14:13:02;14.63;;;7.93;;
16824;SDS011;8529;48.108;-1.706;2023-02-20T14:15:33;11.77;;;7.07;;
16824;SDS011;8529;48.108;-1.706;2023-02-20T14:18:13;12.02;;;7.50;;
16824;SDS011;8529;48.108;-1.706;2023-02-20T14:20:43;13.13;;;7.03;;
16824;SDS011;8529;48.108;-1.706;2023-02-20T14:23:18;14.63;;;7.82;;
16824;SDS011;8529;48.108;-1.706;2023-02-20T14:25:56;15.93;;;8.77;;
16824;SDS011;8529;48.108;-1.706;2023-02-20T14:28:24;13.13;;;7.97;;
16824;SDS011;8529;48.108;-1.706;2023-02-20T14:31:09;13.82;;;7.07;;
16824;SDS011;8529;48.108;-1.706;2023-02-20T14:33:45;14.13;;;7.45;;
16824;SDS011;8529;48.108;-1.706;2023-02-20T14:39:21;14.07;;;7.68;;
16824;SDS011;8529;48.108;-1.706;2023-02-20T14:41:59;15.95;;;8.50;;
16824;SDS011;8529;48.108;-1.706;2023-02-20T14:44:28;15.18;;;7.63;;
16824;SDS011;8529;48.108;-1.706;2023-02-20T14:46:59;14.80;;;8.70;;
16824;SDS011;8529;48.108;-1.706;2023-02-20T14:49:31;14.23;;;7.70;;
16824;SDS011;8529;48.108;-1.706;2023-02-20T14:52:10;16.73;;;8.23;;
16824;SDS011;8529;48.108;-1.706;2023-02-20T14:54:40;14.77;;;7.70;;
16824;SDS011;8529;48.108;-1.706;2023-02-20T14:57:11;12.10;;;7.78;;
16824;SDS011;8529;48.108;-1.706;2023-02-20T14:59:39;13.52;;;7.63;;
16824;SDS011;8529;48.108;-1.706;2023-02-20T15:02:15;14.20;;;8.63;;
16824;SDS011;8529;48.108;-1.706;2023-02-20T15:04:48;15.43;;;8.55;;
16824;SDS011;8529;48.108;-1.706;2023-02-20T15:07:18;15.70;;;7.82;;
16824;SDS011;8529;48.108;-1.706;2023-02-20T15:09:48;15.65;;;7.32;;
16824;SDS011;8529;48.108;-1.706;2023-02-20T15:12:18;16.90;;;8.32;;
16824;SDS011;8529;48.108;-1.706;2023-02-20T15:14:52;14.35;;;8.18;;
16824;SDS011;8529;48.108;-1.706;2023-02-20T15:17:24;13.55;;;7.75;;
16824;SDS011;8529;48.108;-1.706;2023-02-20T15:19:52;15.15;;;7.45;;
16824;SDS011;8529;48.108;-1.706;2023-02-20T15:22:30;16.60;;;8.23;;